createdAt,value
2022-08-18T00:00:00.899Z,14.15
2022-08-18T00:02:30.709Z,17.48
2022-08-18T00:04:58.333Z,14.55
2022-08-18T00:07:31.634Z,14.48
2022-08-18T00:10:00.203Z,13.95
2022-08-18T00:12:43.237Z,14.10
2022-08-18T00:15:14.329Z,15.40
2022-08-18T00:17:41.693Z,14.93
2022-08-18T00:20:13.260Z,15.73
2022-08-18T00:22:40.446Z,15.05
2022-08-18T00:25:10.629Z,15.02
2022-08-18T00:27:39.674Z,18.50
2022-08-18T00:30:12.385Z,14.57
2022-08-18T00:32:42.531Z,17.52
2022-08-18T00:35:15.582Z,15.82
2022-08-18T00:37:43.211Z,16.65
2022-08-18T00:40:13.759Z,17.23
2022-08-18T00:42:48.876Z,15.77
2022-08-18T00:45:20.307Z,14.93
2022-08-18T00:47:47.779Z,16.67
2022-08-18T00:50:24.527Z,14.73
2022-08-18T00:53:05.222Z,16.60
2022-08-18T00:55:33.426Z,15.75
2022-08-18T00:58:08.759Z,19.27
2022-08-18T01:00:37.520Z,18.05
2022-08-18T01:03:12.225Z,14.63
2022-08-18T01:05:47.837Z,14.93
2022-08-18T01:08:16.836Z,14.77
2022-08-18T01:10:48.887Z,17.05
2022-08-18T01:13:16.424Z,20.02
2022-08-18T01:15:44.663Z,22.33
2022-08-18T01:18:33.170Z,18.02
2022-08-18T01:21:34.711Z,16.08
2022-08-18T01:24:05.685Z,15.48
2022-08-18T01:26:37.527Z,15.45
2022-08-18T01:29:18.778Z,13.45
2022-08-18T01:31:56.098Z,19.27
2022-08-18T01:34:27.487Z,15.43
2022-08-18T01:36:55.334Z,16.65
2022-08-18T01:41:27.426Z,15.85
2022-08-18T01:42:13.833Z,14.88
2022-08-18T01:44:41.736Z,17.35
2022-08-18T01:47:12.004Z,15.90
2022-08-18T01:49:44.109Z,17.55
2022-08-18T01:52:19.483Z,16.17
2022-08-18T01:54:48.166Z,15.38
2022-08-18T01:57:18.829Z,23.23
2022-08-18T01:59:47.160Z,17.02
2022-08-18T02:02:18.829Z,16.58
2022-08-18T02:04:47.651Z,17.70
2022-08-18T02:07:15.908Z,15.95
2022-08-18T02:09:46.696Z,26.15
2022-08-18T02:12:18.420Z,15.73
2022-08-18T02:14:45.632Z,16.83
2022-08-18T02:17:13.898Z,14.70
2022-08-18T02:19:45.624Z,14.18
2022-08-18T02:22:16.467Z,16.60
2022-08-18T02:24:44.018Z,14.75
2022-08-18T02:27:14.047Z,15.65
2022-08-18T02:29:41.303Z,13.57
2022-08-18T02:32:09.591Z,12.52
2022-08-18T02:34:37.586Z,12.13
2022-08-18T02:37:04.949Z,11.27
2022-08-18T02:39:34.623Z,16.67
2022-08-18T02:42:01.613Z,24.13
2022-08-18T02:44:29.716Z,11.50
2022-08-18T02:46:57.002Z,15.52
2022-08-18T02:49:25.651Z,12.20
2022-08-18T02:51:53.757Z,14.07
2022-08-18T02:54:23.169Z,15.88
2022-08-18T02:56:52.359Z,13.43
2022-08-18T02:59:24.650Z,14.13
2022-08-18T03:01:56.099Z,14.18
2022-08-18T03:04:29.618Z,11.23
2022-08-18T03:07:01.243Z,11.23
2022-08-18T03:09:29.625Z,17.00
2022-08-18T03:11:57.218Z,14.05
2022-08-18T03:14:25.557Z,13.68
2022-08-18T03:16:53.369Z,13.18
2022-08-18T03:19:29.284Z,11.10
2022-08-18T03:22:02.804Z,13.63
2022-08-18T03:24:32.173Z,15.98
2022-08-18T03:26:59.906Z,15.77
2022-08-18T03:29:32.002Z,12.25
2022-08-18T03:32:02.410Z,11.75
2022-08-18T03:34:30.060Z,21.65
2022-08-18T03:36:57.098Z,14.52
2022-08-18T03:39:25.023Z,14.70
2022-08-18T03:42:01.118Z,12.70
2022-08-18T03:44:32.026Z,15.85
2022-08-18T03:47:00.235Z,13.88
2022-08-18T03:49:27.866Z,13.70
2022-08-18T03:51:54.997Z,16.38
2022-08-18T03:54:23.318Z,17.83
2022-08-18T03:56:51.618Z,17.55
2022-08-18T03:59:21.314Z,13.43
2022-08-18T04:01:50.245Z,14.20
2022-08-18T04:04:21.033Z,21.20
2022-08-18T04:06:54.443Z,12.43
2022-08-18T04:09:22.889Z,12.45
2022-08-18T04:11:51.552Z,17.42
2022-08-18T04:14:21.949Z,18.60
2022-08-18T04:16:49.934Z,13.77
2022-08-18T04:19:26.757Z,14.73
2022-08-18T04:21:55.218Z,14.20
2022-08-18T04:24:24.044Z,11.40
2022-08-18T04:26:51.794Z,18.38
2022-08-18T04:29:21.390Z,15.37
2022-08-18T04:31:50.300Z,11.43
2022-08-18T04:34:20.791Z,13.73
2022-08-18T04:36:48.178Z,14.30
2022-08-18T04:39:15.677Z,20.42
2022-08-18T04:41:44.196Z,11.63
2022-08-18T04:44:12.684Z,16.75
2022-08-18T04:46:49.503Z,24.08
2022-08-18T04:49:18.484Z,23.10
2022-08-18T04:52:34.361Z,14.30
2022-08-18T04:54:58.124Z,16.13
2022-08-18T04:57:26.207Z,16.42
2022-08-18T04:59:54.327Z,15.45
2022-08-18T05:02:22.774Z,12.27
2022-08-18T05:04:52.031Z,14.55
2022-08-18T05:07:22.657Z,17.50
2022-08-18T05:09:50.340Z,15.93
2022-08-18T05:12:17.836Z,12.07
2022-08-18T05:14:47.859Z,11.38
2022-08-18T05:17:16.367Z,11.90
2022-08-18T05:19:45.775Z,19.27
2022-08-18T05:22:18.353Z,7.00
2022-08-18T05:24:46.966Z,9.87
2022-08-18T05:27:14.687Z,9.20
2022-08-18T05:29:46.091Z,7.47
2022-08-18T05:32:40.863Z,10.00
2022-08-18T05:35:09.331Z,6.72
2022-08-18T05:37:43.640Z,8.57
2022-08-18T05:40:11.760Z,24.77
2022-08-18T05:42:40.726Z,22.33
2022-08-18T05:45:15.487Z,22.40
2022-08-18T05:47:42.535Z,28.38
2022-08-18T05:50:18.033Z,27.15
2022-08-18T05:52:44.843Z,27.15
2022-08-18T05:55:58.378Z,25.00
2022-08-18T05:58:49.020Z,25.05
2022-08-18T06:01:42.525Z,28.17
2022-08-18T06:04:25.139Z,31.45
2022-08-18T06:06:53.820Z,37.30
2022-08-18T06:09:34.919Z,17.27
2022-08-18T06:12:21.149Z,16.98
2022-08-18T06:14:48.523Z,14.95
2022-08-18T06:17:40.162Z,14.48
2022-08-18T06:20:32.447Z,11.75
2022-08-18T06:23:09.697Z,10.27
2022-08-18T06:25:55.824Z,12.07
2022-08-18T06:28:22.736Z,12.98
2022-08-18T06:31:09.842Z,11.30
2022-08-18T06:33:51.461Z,12.57
2022-08-18T06:36:30.252Z,9.55
2022-08-18T06:39:19.480Z,11.82
2022-08-18T06:41:49.035Z,9.00
2022-08-18T06:44:46.787Z,10.85
2022-08-18T06:47:40.885Z,10.07
2022-08-18T06:50:28.259Z,10.98
2022-08-18T06:53:02.043Z,15.63
2022-08-18T06:55:58.507Z,18.43
2022-08-18T06:58:30.628Z,18.48
2022-08-18T07:01:01.815Z,19.65
2022-08-18T07:03:34.854Z,25.60
2022-08-18T07:06:21.362Z,18.88
2022-08-18T07:08:56.973Z,14.30
2022-08-18T07:11:29.872Z,15.07
2022-08-18T07:14:17.269Z,15.90
2022-08-18T07:17:00.277Z,19.53
2022-08-18T07:19:32.020Z,13.00
2022-08-18T07:22:06.860Z,14.18
2022-08-18T07:24:39.996Z,14.88
2022-08-18T07:27:17.282Z,15.25
2022-08-18T07:30:15.160Z,15.38
2022-08-18T07:33:00.070Z,10.90
2022-08-18T07:35:40.367Z,12.57
2022-08-18T07:38:42.539Z,24.63
2022-08-18T07:41:26.003Z,11.30
2022-08-18T07:43:55.786Z,11.73
2022-08-18T07:46:38.798Z,11.00
2022-08-18T07:49:07.036Z,12.25
2022-08-18T07:51:37.063Z,12.95
2022-08-18T07:54:20.275Z,13.13
2022-08-18T07:57:26.764Z,13.70
2022-08-18T08:00:03.002Z,12.27
2022-08-18T08:02:54.938Z,12.60
2022-08-18T08:05:57.561Z,12.30
2022-08-18T08:08:40.002Z,12.10
2022-08-18T08:11:27.569Z,12.52
2022-08-18T08:14:13.898Z,11.73
2022-08-18T08:16:50.950Z,12.13
2022-08-18T08:19:36.523Z,12.15
2022-08-18T08:22:19.371Z,11.95
2022-08-18T08:24:51.545Z,12.43
2022-08-18T08:27:50.971Z,13.87
2022-08-18T08:30:20.941Z,12.52
2022-08-18T08:33:03.419Z,12.33
2022-08-18T08:35:49.459Z,12.43
2022-08-18T08:38:42.289Z,12.23
2022-08-18T08:41:32.559Z,14.45
2022-08-18T08:44:17.866Z,12.30
2022-08-18T08:46:50.672Z,13.10
2022-08-18T08:49:40.991Z,12.75
2022-08-18T08:52:31.124Z,13.13
2022-08-18T08:55:11.718Z,13.25
2022-08-18T08:57:53.874Z,12.90
2022-08-18T09:00:21.411Z,12.15
2022-08-18T09:02:53.944Z,13.50
2022-08-18T09:05:39.950Z,11.83
2022-08-18T09:08:36.531Z,14.25
2022-08-18T09:11:29.673Z,13.80
2022-08-18T09:14:26.897Z,16.40
2022-08-18T09:16:56.640Z,13.90
2022-08-18T09:19:39.259Z,13.13
2022-08-18T09:22:55.307Z,11.43
2022-08-18T09:25:43.303Z,10.55
2022-08-18T09:28:12.983Z,11.30
2022-08-18T09:30:42.614Z,10.98
2022-08-18T09:33:46.671Z,12.88
2022-08-18T09:36:28.477Z,12.23
2022-08-18T09:39:47.054Z,13.00
2022-08-18T09:42:30.162Z,12.23
2022-08-18T09:45:01.982Z,10.88
2022-08-18T09:47:30.310Z,11.23
2022-08-18T09:50:27.025Z,11.07
2022-08-18T09:53:53.230Z,13.13
2022-08-18T09:56:54.134Z,11.27
2022-08-18T09:59:38.052Z,9.82
2022-08-18T10:02:06.494Z,12.18
2022-08-18T10:04:51.084Z,11.48
2022-08-18T10:07:21.046Z,10.90
2022-08-18T10:09:47.792Z,11.77
2022-08-18T10:12:53.778Z,12.50
2022-08-18T10:16:15.690Z,11.25
2022-08-18T10:19:07.958Z,11.05
2022-08-18T10:21:58.168Z,12.00
2022-08-18T10:24:39.766Z,11.43
2022-08-18T10:27:46.735Z,12.00
2022-08-18T10:34:01.311Z,11.95
2022-08-18T10:36:51.617Z,13.20
2022-08-18T10:39:42.627Z,12.40
2022-08-18T10:42:22.487Z,12.20
2022-08-18T10:44:55.365Z,11.38
2022-08-18T10:47:33.500Z,13.10
2022-08-18T10:50:06.837Z,15.23
2022-08-18T10:52:46.198Z,11.47
2022-08-18T10:55:27.026Z,10.77
2022-08-18T10:58:28.333Z,12.15
2022-08-18T11:01:07.295Z,10.82
2022-08-18T11:03:55.967Z,10.90
2022-08-18T11:06:25.744Z,13.05
2022-08-18T11:08:59.877Z,10.93
2022-08-18T11:11:38.779Z,11.30
2022-08-18T11:14:41.857Z,11.52
2022-08-18T11:17:22.851Z,11.82
2022-08-18T11:19:52.453Z,12.27
2022-08-18T11:22:31.614Z,13.23
2022-08-18T11:25:03.275Z,11.90
2022-08-18T11:27:35.607Z,11.40
2022-08-18T11:30:05.527Z,13.68
2022-08-18T11:32:42.688Z,11.32
2022-08-18T11:35:23.440Z,13.43
2022-08-18T11:37:59.849Z,11.55
2022-08-18T11:43:41.067Z,12.68
2022-08-18T11:46:39.313Z,12.52
2022-08-18T11:49:33.609Z,11.00
2022-08-18T11:52:15.093Z,10.63
2022-08-18T11:54:54.313Z,11.68
2022-08-18T11:57:49.265Z,12.13
2022-08-18T12:00:54.589Z,11.30
2022-08-18T12:03:31.656Z,10.45
2022-08-18T12:06:21.168Z,12.30
2022-08-18T12:08:57.949Z,11.57
2022-08-18T12:11:36.024Z,11.77
2022-08-18T12:17:08.051Z,11.32
2022-08-18T12:19:35.164Z,10.68
2022-08-18T12:22:12.498Z,9.20
2022-08-18T12:24:40.069Z,12.93
2022-08-18T12:27:20.411Z,13.30
2022-08-18T12:29:50.619Z,13.50
2022-08-18T12:32:41.375Z,13.98
2022-08-18T12:35:09.725Z,13.27
2022-08-18T12:40:26.564Z,13.50
2022-08-18T12:42:55.749Z,11.70
2022-08-18T12:45:23.550Z,13.15
2022-08-18T12:47:52.695Z,12.77
2022-08-18T12:50:20.043Z,12.90
2022-08-18T12:52:58.199Z,13.57
2022-08-18T12:55:26.127Z,11.88
2022-08-18T12:57:53.903Z,10.68
2022-08-18T13:00:27.903Z,11.02
2022-08-18T13:02:56.631Z,9.87
2022-08-18T13:05:27.667Z,9.90
2022-08-18T13:08:00.262Z,10.15
2022-08-18T13:10:45.772Z,9.27
2022-08-18T13:13:15.681Z,8.95
2022-08-18T13:15:44.381Z,8.88
2022-08-18T13:18:27.265Z,10.32
2022-08-18T13:20:58.295Z,9.00
2022-08-18T13:23:27.688Z,8.63
2022-08-18T13:25:59.347Z,10.48
2022-08-18T13:28:35.770Z,8.32
2022-08-18T13:31:06.648Z,10.10
2022-08-18T13:33:57.251Z,12.02
2022-08-18T13:36:22.357Z,8.85
2022-08-18T13:38:52.357Z,10.05
2022-08-18T13:43:52.229Z,9.52
2022-08-18T13:46:29.795Z,12.20
2022-08-18T13:49:02.140Z,8.02
2022-08-18T13:51:30.487Z,9.30
2022-08-18T13:54:17.965Z,9.20
2022-08-18T13:56:51.843Z,12.65
2022-08-18T13:59:21.681Z,9.63
2022-08-18T14:01:53.036Z,8.95
2022-08-18T14:04:22.786Z,9.48
2022-08-18T14:06:56.921Z,9.27
2022-08-18T14:09:36.673Z,8.07
2022-08-18T14:12:23.359Z,8.43
2022-08-18T14:14:55.695Z,7.60
2022-08-18T14:17:24.997Z,9.30
2022-08-18T14:20:15.310Z,8.27
2022-08-18T14:23:13.188Z,9.45
2022-08-18T14:26:00.010Z,8.27
2022-08-18T14:28:28.282Z,10.02
2022-08-18T14:30:56.996Z,10.63
2022-08-18T14:33:34.106Z,9.55
2022-08-18T14:36:14.208Z,8.73
2022-08-18T14:38:41.894Z,10.90
2022-08-18T14:41:13.167Z,8.30
2022-08-18T14:44:04.496Z,9.68
2022-08-18T14:46:30.568Z,13.43
2022-08-18T14:49:00.189Z,11.88
2022-08-18T14:51:31.795Z,12.65
2022-08-18T14:54:01.162Z,12.87
2022-08-18T14:56:29.403Z,9.98
2022-08-18T14:58:56.612Z,9.70
2022-08-18T15:01:24.687Z,9.15
2022-08-18T15:03:54.386Z,9.45
2022-08-18T15:06:22.881Z,11.15
2022-08-18T15:08:55.029Z,9.65
2022-08-18T15:11:24.868Z,10.43
2022-08-18T15:13:55.153Z,8.27
2022-08-18T15:16:31.579Z,8.43
2022-08-18T15:19:00.280Z,8.30
2022-08-18T15:21:49.315Z,7.93
2022-08-18T15:24:37.563Z,11.43
2022-08-18T15:27:10.287Z,23.20
2022-08-18T15:29:46.292Z,8.80
2022-08-18T15:32:15.206Z,12.45
2022-08-18T15:34:47.256Z,13.27
2022-08-18T15:37:24.015Z,11.73
2022-08-18T15:40:30.201Z,10.15
2022-08-18T15:43:01.471Z,10.93
2022-08-18T15:45:37.657Z,7.85
2022-08-18T15:48:12.519Z,10.65
2022-08-18T15:50:39.515Z,7.30
2022-08-18T15:53:10.939Z,7.78
2022-08-18T15:55:39.600Z,8.18
2022-08-18T15:58:11.097Z,8.75
2022-08-18T16:00:45.520Z,7.15
2022-08-18T16:03:14.518Z,7.97
2022-08-18T16:05:53.330Z,7.95
2022-08-18T16:08:25.191Z,6.97
2022-08-18T16:10:53.503Z,8.98
2022-08-18T16:13:21.299Z,8.80
2022-08-18T16:15:50.127Z,8.05
2022-08-18T16:18:18.507Z,7.18
2022-08-18T16:20:45.396Z,6.68
2022-08-18T16:23:13.201Z,7.85
2022-08-18T16:25:42.037Z,8.70
2022-08-18T16:28:09.855Z,7.88
2022-08-18T16:30:36.727Z,8.90
2022-08-18T16:33:06.501Z,6.50
2022-08-18T16:35:35.071Z,8.32
2022-08-18T16:38:08.637Z,7.00
2022-08-18T16:40:36.113Z,8.45
2022-08-18T16:43:03.884Z,7.50
2022-08-18T16:45:32.918Z,7.57
2022-08-18T16:48:00.529Z,6.50
2022-08-18T16:50:28.022Z,9.05
2022-08-18T16:52:55.443Z,6.85
2022-08-18T16:55:22.237Z,7.95
2022-08-18T16:58:07.847Z,7.63
2022-08-18T17:01:18.760Z,8.75
2022-08-18T17:04:14.715Z,7.07
2022-08-18T17:06:48.038Z,11.75
2022-08-18T17:09:16.003Z,6.68
2022-08-18T17:11:51.390Z,8.95
2022-08-18T17:14:24.342Z,9.85
2022-08-18T17:16:55.963Z,7.30
2022-08-18T17:19:26.095Z,7.50
2022-08-18T17:21:53.665Z,7.32
2022-08-18T17:24:31.044Z,6.43
2022-08-18T17:27:26.595Z,8.00
2022-08-18T17:29:57.345Z,8.55
2022-08-18T17:35:33.239Z,6.47
2022-08-18T17:38:16.614Z,7.80
2022-08-18T17:40:47.888Z,7.97
2022-08-18T17:43:20.846Z,7.53
2022-08-18T17:45:54.405Z,10.65
2022-08-18T17:48:35.115Z,6.85
2022-08-18T17:51:37.610Z,9.05
2022-08-18T17:54:38.092Z,7.60
2022-08-18T17:57:14.643Z,8.00
2022-08-18T17:59:51.959Z,8.70
2022-08-18T18:02:30.580Z,10.88
2022-08-18T18:05:04.008Z,7.78
2022-08-18T18:07:51.761Z,7.85
2022-08-18T18:13:33.211Z,10.38
2022-08-18T18:16:27.393Z,7.75
2022-08-18T18:19:07.251Z,8.05
2022-08-18T18:21:56.564Z,10.15
2022-08-18T18:24:33.047Z,7.97
2022-08-18T18:27:00.415Z,12.45
2022-08-18T18:29:37.698Z,8.47
2022-08-18T18:32:32.002Z,10.38
2022-08-18T18:35:06.907Z,9.27
2022-08-18T18:37:47.292Z,9.10
2022-08-18T18:40:37.023Z,8.10
2022-08-18T18:43:21.828Z,9.10
2022-08-18T18:46:18.996Z,11.48
2022-08-18T18:49:20.258Z,10.93
2022-08-18T18:52:12.020Z,13.07
2022-08-18T18:55:02.394Z,11.37
2022-08-18T18:58:03.031Z,8.43
2022-08-18T19:00:53.699Z,8.32
2022-08-18T19:03:46.421Z,12.32
2022-08-18T19:06:31.878Z,14.05
2022-08-18T19:09:13.817Z,10.52
2022-08-18T19:11:57.774Z,9.05
2022-08-18T19:14:30.206Z,15.95
2022-08-18T19:17:19.876Z,8.00
2022-08-18T19:19:49.430Z,10.27
2022-08-18T19:22:22.397Z,7.75
2022-08-18T19:25:13.090Z,11.38
2022-08-18T19:28:06.982Z,10.40
2022-08-18T19:30:37.351Z,11.93
2022-08-18T19:33:05.763Z,22.65
2022-08-18T19:35:50.111Z,10.68
2022-08-18T19:38:35.215Z,12.50
2022-08-18T19:41:19.903Z,11.88
2022-08-18T19:44:03.356Z,11.48
2022-08-18T19:47:02.331Z,10.98
2022-08-18T19:49:46.974Z,11.93
2022-08-18T19:52:45.882Z,10.32
2022-08-18T19:55:28.131Z,10.00
2022-08-18T19:58:19.554Z,9.70
2022-08-18T20:01:20.781Z,10.48
2022-08-18T20:04:11.878Z,10.40
2022-08-18T20:06:56.591Z,9.07
2022-08-18T20:09:48.034Z,15.90
2022-08-18T20:12:37.439Z,12.68
2022-08-18T20:15:23.109Z,10.38
2022-08-18T20:18:19.511Z,16.75
2022-08-18T20:21:15.427Z,21.30
2022-08-18T20:24:13.159Z,18.15
2022-08-18T20:26:39.916Z,13.70
2022-08-18T20:29:09.353Z,20.67
2022-08-18T20:31:59.658Z,14.75
2022-08-18T20:34:31.930Z,15.80
2022-08-18T20:37:01.459Z,25.58
2022-08-18T20:39:54.543Z,14.68
2022-08-18T20:42:21.454Z,15.45
2022-08-18T20:44:48.117Z,15.83
2022-08-18T20:47:56.390Z,19.17
2022-08-18T20:50:59.196Z,20.85
2022-08-18T20:54:03.290Z,15.60
2022-08-18T20:56:46.357Z,19.07
2022-08-18T20:59:20.172Z,18.97
2022-08-18T21:02:08.185Z,19.73
2022-08-18T21:04:38.118Z,17.60
2022-08-18T21:07:43.302Z,20.05
2022-08-18T21:10:20.330Z,17.58
2022-08-18T21:13:00.550Z,19.23
2022-08-18T21:15:30.833Z,23.25
2022-08-18T21:18:16.344Z,21.70
2022-08-18T21:20:43.373Z,24.27
2022-08-18T21:23:13.664Z,25.35
2022-08-18T21:25:50.886Z,19.20
2022-08-18T21:28:18.355Z,16.92
2022-08-18T21:31:42.838Z,17.15
2022-08-18T21:34:33.230Z,20.65
2022-08-18T21:37:06.298Z,23.20
2022-08-18T21:39:34.360Z,15.88
2022-08-18T21:42:01.555Z,18.25
2022-08-18T21:44:45.577Z,16.27
2022-08-18T21:47:20.047Z,22.65
2022-08-18T21:50:10.666Z,19.27
2022-08-18T21:52:52.003Z,25.37
2022-08-18T21:55:26.729Z,20.52
2022-08-18T21:58:04.320Z,15.52
2022-08-18T22:00:40.042Z,19.42
2022-08-18T22:03:16.027Z,18.50
2022-08-18T22:05:58.020Z,17.03
2022-08-18T22:08:33.073Z,15.77
2022-08-18T22:12:00.537Z,13.68
2022-08-18T22:14:35.917Z,19.48
2022-08-18T22:17:53.684Z,15.65
2022-08-18T22:20:44.719Z,14.57
2022-08-18T22:23:33.088Z,21.30
2022-08-18T22:26:10.891Z,14.87
2022-08-18T22:28:46.441Z,17.38
2022-08-18T22:31:18.153Z,14.17
2022-08-18T22:33:48.306Z,12.47
2022-08-18T22:36:18.930Z,24.10
2022-08-18T22:38:46.759Z,13.23
2022-08-18T22:41:14.441Z,15.43
2022-08-18T22:43:41.234Z,23.52
2022-08-18T22:46:08.007Z,16.53
2022-08-18T22:48:35.044Z,25.10
2022-08-18T22:51:02.487Z,16.42
2022-08-18T22:53:29.802Z,16.92
2022-08-18T22:55:59.366Z,13.13
2022-08-18T22:58:32.995Z,12.27
2022-08-18T23:01:05.455Z,17.08
2022-08-18T23:03:41.569Z,22.13
2022-08-18T23:06:09.838Z,11.40
2022-08-18T23:08:54.561Z,11.13
2022-08-18T23:11:24.358Z,19.33
2022-08-18T23:13:51.580Z,29.38
2022-08-18T23:16:31.899Z,12.60
2022-08-18T23:19:03.466Z,10.18
2022-08-18T23:21:34.535Z,22.27
2022-08-18T23:24:05.823Z,14.93
2022-08-18T23:26:33.926Z,19.27
2022-08-18T23:29:01.800Z,12.10
2022-08-18T23:31:30.042Z,18.38
2022-08-18T23:33:58.802Z,14.52
2022-08-18T23:36:25.750Z,16.93
2022-08-18T23:38:53.970Z,23.85
2022-08-18T23:41:21.617Z,22.92
2022-08-18T23:43:50.735Z,13.35
2022-08-18T23:46:23.130Z,16.42
2022-08-18T23:48:51.592Z,15.68
2022-08-18T23:51:39.425Z,18.23
2022-08-18T23:54:12.946Z,16.33
2022-08-18T23:56:40.274Z,13.80
2022-08-18T23:59:08.314Z,10.73
